sensor_id;sensor_type;location;lat;lon;timestamp;temperature;humidity
52731;DHT22;38624;53.242;6.974;2023-12-04T00:00:37;-0.70;99.90
52731;DHT22;38624;53.242;6.974;2023-12-04T00:03:03;-0.80;99.90
52731;DHT22;38624;53.242;6.974;2023-12-04T00:05:29;0.00;99.90
52731;DHT22;38624;53.242;6.974;2023-12-04T00:07:55;-0.80;99.90
52731;DHT22;38624;53.242;6.974;2023-12-04T00:10:20;-0.70;99.90
52731;DHT22;38624;53.242;6.974;2023-12-04T00:12:46;-0.80;99.90
52731;DHT22;38624;53.242;6.974;2023-12-04T00:15:12;-0.80;99.90
52731;DHT22;38624;53.242;6.974;2023-12-04T00:17:38;-0.80;99.90
52731;DHT22;38624;53.242;6.974;2023-12-04T00:20:08;-0.80;99.90
52731;DHT22;38624;53.242;6.974;2023-12-04T00:22:35;-0.80;99.90
52731;DHT22;38624;53.242;6.974;2023-12-04T00:25:02;-0.80;99.90
52731;DHT22;38624;53.242;6.974;2023-12-04T00:27:28;-0.80;99.90
52731;DHT22;38624;53.242;6.974;2023-12-04T00:29:54;-0.80;99.90
52731;DHT22;38624;53.242;6.974;2023-12-04T00:32:20;-0.80;99.90
52731;DHT22;38624;53.242;6.974;2023-12-04T00:34:46;0.30;99.90
52731;DHT22;38624;53.242;6.974;2023-12-04T00:37:11;-0.80;99.90
52731;DHT22;38624;53.242;6.974;2023-12-04T00:39:37;-0.70;99.90
52731;DHT22;38624;53.242;6.974;2023-12-04T00:42:03;-0.70;99.90
52731;DHT22;38624;53.242;6.974;2023-12-04T00:44:28;-0.70;99.90
52731;DHT22;38624;53.242;6.974;2023-12-04T00:46:54;-0.70;99.90
52731;DHT22;38624;53.242;6.974;2023-12-04T00:49:20;-0.70;99.90
52731;DHT22;38624;53.242;6.974;2023-12-04T00:51:48;0.50;99.90
52731;DHT22;38624;53.242;6.974;2023-12-04T00:54:14;-0.70;99.90
52731;DHT22;38624;53.242;6.974;2023-12-04T00:56:39;-0.70;99.90
52731;DHT22;38624;53.242;6.974;2023-12-04T00:59:08;-0.70;99.90
52731;DHT22;38624;53.242;6.974;2023-12-04T01:01:36;-0.70;99.90
52731;DHT22;38624;53.242;6.974;2023-12-04T01:04:02;0.10;99.90
52731;DHT22;38624;53.242;6.974;2023-12-04T01:06:27;-0.70;99.90
52731;DHT22;38624;53.242;6.974;2023-12-04T01:08:54;-0.70;99.90
52731;DHT22;38624;53.242;6.974;2023-12-04T01:11:20;-0.70;99.90
52731;DHT22;38624;53.242;6.974;2023-12-04T01:13:46;-0.70;99.90
52731;DHT22;38624;53.242;6.974;2023-12-04T01:16:12;-0.70;99.90
52731;DHT22;38624;53.242;6.974;2023-12-04T01:18:37;-0.60;99.90
52731;DHT22;38624;53.242;6.974;2023-12-04T01:21:03;-0.70;99.90
52731;DHT22;38624;53.242;6.974;2023-12-04T01:23:29;-0.60;99.90
52731;DHT22;38624;53.242;6.974;2023-12-04T01:25:54;-0.60;99.90
52731;DHT22;38624;53.242;6.974;2023-12-04T01:28:20;-0.60;99.90
52731;DHT22;38624;53.242;6.974;2023-12-04T01:30:46;-0.30;99.90
52731;DHT22;38624;53.242;6.974;2023-12-04T01:33:12;-0.70;99.90
52731;DHT22;38624;53.242;6.974;2023-12-04T01:35:37;-0.60;99.90
52731;DHT22;38624;53.242;6.974;2023-12-04T01:38:03;0.70;99.90
52731;DHT22;38624;53.242;6.974;2023-12-04T01:40:29;0.50;99.90
52731;DHT22;38624;53.242;6.974;2023-12-04T01:42:54;0.70;99.90
52731;DHT22;38624;53.242;6.974;2023-12-04T01:45:20;-0.60;99.90
52731;DHT22;38624;53.242;6.974;2023-12-04T01:47:46;0.60;99.90
52731;DHT22;38624;53.242;6.974;2023-12-04T01:50:13;-0.60;99.90
52731;DHT22;38624;53.242;6.974;2023-12-04T01:52:40;-0.70;99.90
52731;DHT22;38624;53.242;6.974;2023-12-04T01:55:07;-0.60;99.90
52731;DHT22;38624;53.242;6.974;2023-12-04T01:57:34;-0.60;99.90
52731;DHT22;38624;53.242;6.974;2023-12-04T02:00:00;0.50;99.90
52731;DHT22;38624;53.242;6.974;2023-12-04T02:02:29;0.70;99.90
52731;DHT22;38624;53.242;6.974;2023-12-04T02:04:55;-0.60;99.90
52731;DHT22;38624;53.242;6.974;2023-12-04T02:07:22;0.20;99.90
52731;DHT22;38624;53.242;6.974;2023-12-04T02:09:48;-0.60;99.90
52731;DHT22;38624;53.242;6.974;2023-12-04T02:12:14;-0.60;99.90
52731;DHT22;38624;53.242;6.974;2023-12-04T02:14:40;-0.60;99.90
52731;DHT22;38624;53.242;6.974;2023-12-04T02:17:06;-0.60;99.90
52731;DHT22;38624;53.242;6.974;2023-12-04T02:19:33;-0.60;99.90
52731;DHT22;38624;53.242;6.974;2023-12-04T02:21:59;0.30;99.90
52731;DHT22;38624;53.242;6.974;2023-12-04T02:24:25;0.40;99.90
52731;DHT22;38624;53.242;6.974;2023-12-04T02:26:55;0.50;99.90
52731;DHT22;38624;53.242;6.974;2023-12-04T02:29:30;-0.40;99.90
52731;DHT22;38624;53.242;6.974;2023-12-04T02:31:57;-0.60;99.90
52731;DHT22;38624;53.242;6.974;2023-12-04T02:34:24;0.40;99.90
52731;DHT22;38624;53.242;6.974;2023-12-04T02:36:50;0.50;99.90
52731;DHT22;38624;53.242;6.974;2023-12-04T02:39:17;-0.60;99.90
52731;DHT22;38624;53.242;6.974;2023-12-04T02:41:42;-0.60;99.90
52731;DHT22;38624;53.242;6.974;2023-12-04T02:44:08;-0.50;99.90
52731;DHT22;38624;53.242;6.974;2023-12-04T02:46:34;-0.50;99.90
52731;DHT22;38624;53.242;6.974;2023-12-04T02:49:00;-0.60;99.90
52731;DHT22;38624;53.242;6.974;2023-12-04T02:51:25;-0.60;99.90
52731;DHT22;38624;53.242;6.974;2023-12-04T02:53:52;-0.60;99.90
52731;DHT22;38624;53.242;6.974;2023-12-04T02:56:17;-0.50;99.90
52731;DHT22;38624;53.242;6.974;2023-12-04T02:58:43;-0.50;99.90
52731;DHT22;38624;53.242;6.974;2023-12-04T03:01:09;0.60;99.90
52731;DHT22;38624;53.242;6.974;2023-12-04T03:03:35;-0.50;99.90
52731;DHT22;38624;53.242;6.974;2023-12-04T03:06:00;0.30;99.90
52731;DHT22;38624;53.242;6.974;2023-12-04T03:08:26;-0.60;99.90
52731;DHT22;38624;53.242;6.974;2023-12-04T03:10:52;-0.30;99.90
52731;DHT22;38624;53.242;6.974;2023-12-04T03:13:18;-0.60;99.90
52731;DHT22;38624;53.242;6.974;2023-12-04T03:15:43;-0.50;99.90
52731;DHT22;38624;53.242;6.974;2023-12-04T03:18:09;0.20;99.90
52731;DHT22;38624;53.242;6.974;2023-12-04T03:20:35;-0.50;99.90
52731;DHT22;38624;53.242;6.974;2023-12-04T03:23:00;0.20;99.90
52731;DHT22;38624;53.242;6.974;2023-12-04T03:25:26;-0.50;99.90
52731;DHT22;38624;53.242;6.974;2023-12-04T03:27:52;0.90;99.90
52731;DHT22;38624;53.242;6.974;2023-12-04T03:30:17;-0.50;99.90
52731;DHT22;38624;53.242;6.974;2023-12-04T03:32:43;-0.50;99.90
52731;DHT22;38624;53.242;6.974;2023-12-04T03:35:09;0.60;99.90
52731;DHT22;38624;53.242;6.974;2023-12-04T03:37:36;-0.50;99.90
52731;DHT22;38624;53.242;6.974;2023-12-04T03:40:01;-0.60;99.90
52731;DHT22;38624;53.242;6.974;2023-12-04T03:42:27;-0.50;99.90
52731;DHT22;38624;53.242;6.974;2023-12-04T03:44:53;-0.60;99.90
52731;DHT22;38624;53.242;6.974;2023-12-04T03:47:18;0.30;99.90
52731;DHT22;38624;53.242;6.974;2023-12-04T03:49:44;-0.50;99.90
52731;DHT22;38624;53.242;6.974;2023-12-04T03:52:10;-0.60;99.90
52731;DHT22;38624;53.242;6.974;2023-12-04T03:54:35;-0.60;99.90
52731;DHT22;38624;53.242;6.974;2023-12-04T03:57:01;-0.60;99.90
52731;DHT22;38624;53.242;6.974;2023-12-04T03:59:27;-0.10;99.90
52731;DHT22;38624;53.242;6.974;2023-12-04T04:01:53;-0.50;99.90
52731;DHT22;38624;53.242;6.974;2023-12-04T04:04:18;0.00;99.90
52731;DHT22;38624;53.242;6.974;2023-12-04T04:06:44;0.80;99.90
52731;DHT22;38624;53.242;6.974;2023-12-04T04:09:10;-0.50;99.90
52731;DHT22;38624;53.242;6.974;2023-12-04T04:11:35;0.50;99.90
52731;DHT22;38624;53.242;6.974;2023-12-04T04:14:01;-0.50;99.90
52731;DHT22;38624;53.242;6.974;2023-12-04T04:16:27;-0.50;99.90
52731;DHT22;38624;53.242;6.974;2023-12-04T04:18:52;-0.50;99.90
52731;DHT22;38624;53.242;6.974;2023-12-04T04:21:18;-0.50;99.90
52731;DHT22;38624;53.242;6.974;2023-12-04T04:23:43;-0.40;99.90
52731;DHT22;38624;53.242;6.974;2023-12-04T04:26:09;-0.50;99.90
52731;DHT22;38624;53.242;6.974;2023-12-04T04:28:35;-0.50;99.90
52731;DHT22;38624;53.242;6.974;2023-12-04T04:31:00;0.60;99.90
52731;DHT22;38624;53.242;6.974;2023-12-04T04:33:26;-0.40;99.90
52731;DHT22;38624;53.242;6.974;2023-12-04T04:35:52;0.90;99.90
52731;DHT22;38624;53.242;6.974;2023-12-04T04:38:17;-0.40;99.90
52731;DHT22;38624;53.242;6.974;2023-12-04T04:40:43;-0.20;99.90
52731;DHT22;38624;53.242;6.974;2023-12-04T04:43:12;-0.40;99.90
52731;DHT22;38624;53.242;6.974;2023-12-04T04:45:38;-0.50;99.90
52731;DHT22;38624;53.242;6.974;2023-12-04T04:48:04;0.80;99.90
52731;DHT22;38624;53.242;6.974;2023-12-04T04:50:30;-0.50;99.90
52731;DHT22;38624;53.242;6.974;2023-12-04T04:52:55;0.70;99.90
52731;DHT22;38624;53.242;6.974;2023-12-04T04:55:21;-0.50;99.90
52731;DHT22;38624;53.242;6.974;2023-12-04T04:57:46;-0.50;99.90
52731;DHT22;38624;53.242;6.974;2023-12-04T05:00:12;0.00;99.90
52731;DHT22;38624;53.242;6.974;2023-12-04T05:02:38;-0.50;99.90
52731;DHT22;38624;53.242;6.974;2023-12-04T05:05:04;-0.50;99.90
52731;DHT22;38624;53.242;6.974;2023-12-04T05:07:30;-0.50;99.90
52731;DHT22;38624;53.242;6.974;2023-12-04T05:09:56;0.70;99.90
52731;DHT22;38624;53.242;6.974;2023-12-04T05:12:21;0.10;99.90
52731;DHT22;38624;53.242;6.974;2023-12-04T05:14:47;-0.50;99.90
52731;DHT22;38624;53.242;6.974;2023-12-04T05:17:13;-0.50;99.90
52731;DHT22;38624;53.242;6.974;2023-12-04T05:19:38;-0.60;99.90
52731;DHT22;38624;53.242;6.974;2023-12-04T05:22:04;-0.50;99.90
52731;DHT22;38624;53.242;6.974;2023-12-04T05:24:30;-0.50;99.90
52731;DHT22;38624;53.242;6.974;2023-12-04T05:26:55;-0.50;99.90
52731;DHT22;38624;53.242;6.974;2023-12-04T05:29:21;-0.50;99.90
52731;DHT22;38624;53.242;6.974;2023-12-04T05:31:47;-0.50;99.90
52731;DHT22;38624;53.242;6.974;2023-12-04T05:34:12;-0.50;99.90
52731;DHT22;38624;53.242;6.974;2023-12-04T05:36:38;-0.50;99.90
52731;DHT22;38624;53.242;6.974;2023-12-04T05:39:04;-0.50;99.90
52731;DHT22;38624;53.242;6.974;2023-12-04T05:41:30;-0.50;99.90
52731;DHT22;38624;53.242;6.974;2023-12-04T05:43:56;-0.60;99.90
52731;DHT22;38624;53.242;6.974;2023-12-04T05:46:22;0.40;99.90
52731;DHT22;38624;53.242;6.974;2023-12-04T05:48:48;-0.60;99.90
52731;DHT22;38624;53.242;6.974;2023-12-04T05:51:14;-0.70;99.90
52731;DHT22;38624;53.242;6.974;2023-12-04T05:53:41;-0.30;99.90
52731;DHT22;38624;53.242;6.974;2023-12-04T05:56:07;-0.70;99.90
52731;DHT22;38624;53.242;6.974;2023-12-04T05:58:34;-0.70;99.90
52731;DHT22;38624;53.242;6.974;2023-12-04T06:01:00;-0.70;99.90
52731;DHT22;38624;53.242;6.974;2023-12-04T06:03:26;-0.70;99.90
52731;DHT22;38624;53.242;6.974;2023-12-04T06:05:52;-0.80;99.90
52731;DHT22;38624;53.242;6.974;2023-12-04T06:08:17;-0.80;99.90
52731;DHT22;38624;53.242;6.974;2023-12-04T06:10:43;-0.80;99.90
52731;DHT22;38624;53.242;6.974;2023-12-04T06:13:09;-0.70;99.90
52731;DHT22;38624;53.242;6.974;2023-12-04T06:15:34;0.70;99.90
52731;DHT22;38624;53.242;6.974;2023-12-04T06:18:00;0.50;99.90
52731;DHT22;38624;53.242;6.974;2023-12-04T06:20:26;-0.70;99.90
52731;DHT22;38624;53.242;6.974;2023-12-04T06:22:52;-0.50;99.90
52731;DHT22;38624;53.242;6.974;2023-12-04T06:25:18;-0.60;99.90
52731;DHT22;38624;53.242;6.974;2023-12-04T06:27:44;-0.50;99.90
52731;DHT22;38624;53.242;6.974;2023-12-04T06:30:10;-0.50;99.90
52731;DHT22;38624;53.242;6.974;2023-12-04T06:32:36;-0.50;99.90
52731;DHT22;38624;53.242;6.974;2023-12-04T06:35:02;-0.50;99.90
52731;DHT22;38624;53.242;6.974;2023-12-04T06:37:29;-0.50;99.90
52731;DHT22;38624;53.242;6.974;2023-12-04T06:39:57;-0.50;99.90
52731;DHT22;38624;53.242;6.974;2023-12-04T06:42:25;-0.50;99.90
52731;DHT22;38624;53.242;6.974;2023-12-04T06:44:51;-0.40;99.90
52731;DHT22;38624;53.242;6.974;2023-12-04T06:47:19;-0.50;99.90
52731;DHT22;38624;53.242;6.974;2023-12-04T06:49:46;-0.50;99.90
52731;DHT22;38624;53.242;6.974;2023-12-04T06:52:12;-0.40;99.90
52731;DHT22;38624;53.242;6.974;2023-12-04T06:54:38;-0.40;99.90
52731;DHT22;38624;53.242;6.974;2023-12-04T06:57:04;0.80;99.90
52731;DHT22;38624;53.242;6.974;2023-12-04T06:59:30;0.10;99.90
52731;DHT22;38624;53.242;6.974;2023-12-04T07:01:55;-0.40;99.90
52731;DHT22;38624;53.242;6.974;2023-12-04T07:04:21;-0.40;99.90
52731;DHT22;38624;53.242;6.974;2023-12-04T07:06:48;-0.40;99.90
52731;DHT22;38624;53.242;6.974;2023-12-04T07:09:14;-0.40;99.90
52731;DHT22;38624;53.242;6.974;2023-12-04T07:11:39;-0.40;99.90
52731;DHT22;38624;53.242;6.974;2023-12-04T07:14:05;-0.40;99.90
52731;DHT22;38624;53.242;6.974;2023-12-04T07:16:32;-0.30;99.90
52731;DHT22;38624;53.242;6.974;2023-12-04T07:19:03;0.80;99.90
52731;DHT22;38624;53.242;6.974;2023-12-04T07:21:29;-0.40;99.90
52731;DHT22;38624;53.242;6.974;2023-12-04T07:23:55;-0.40;99.90
52731;DHT22;38624;53.242;6.974;2023-12-04T07:26:21;-0.40;99.90
52731;DHT22;38624;53.242;6.974;2023-12-04T07:28:46;0.00;99.90
52731;DHT22;38624;53.242;6.974;2023-12-04T07:31:12;-0.40;99.90
52731;DHT22;38624;53.242;6.974;2023-12-04T07:33:38;-0.40;99.90
52731;DHT22;38624;53.242;6.974;2023-12-04T07:36:04;-0.50;99.90
52731;DHT22;38624;53.242;6.974;2023-12-04T07:38:29;-0.50;99.90
52731;DHT22;38624;53.242;6.974;2023-12-04T07:40:55;0.70;99.90
52731;DHT22;38624;53.242;6.974;2023-12-04T07:43:21;0.70;99.90
52731;DHT22;38624;53.242;6.974;2023-12-04T07:45:47;-0.60;99.90
52731;DHT22;38624;53.242;6.974;2023-12-04T07:48:12;0.70;99.90
52731;DHT22;38624;53.242;6.974;2023-12-04T07:50:38;-2.00;99.90
52731;DHT22;38624;53.242;6.974;2023-12-04T07:53:05;-0.20;99.90
52731;DHT22;38624;53.242;6.974;2023-12-04T07:55:33;-0.60;99.90
52731;DHT22;38624;53.242;6.974;2023-12-04T07:57:58;-0.70;99.90
52731;DHT22;38624;53.242;6.974;2023-12-04T08:00:24;-0.70;99.90
52731;DHT22;38624;53.242;6.974;2023-12-04T08:02:51;-0.70;99.90
52731;DHT22;38624;53.242;6.974;2023-12-04T08:05:17;-0.70;99.90
52731;DHT22;38624;53.242;6.974;2023-12-04T08:07:42;0.40;99.90
52731;DHT22;38624;53.242;6.974;2023-12-04T08:10:08;-0.60;99.90
52731;DHT22;38624;53.242;6.974;2023-12-04T08:12:34;-0.60;99.90
52731;DHT22;38624;53.242;6.974;2023-12-04T08:15:00;-0.60;99.90
52731;DHT22;38624;53.242;6.974;2023-12-04T08:17:27;-0.50;99.90
52731;DHT22;38624;53.242;6.974;2023-12-04T08:19:53;-0.40;99.90
52731;DHT22;38624;53.242;6.974;2023-12-04T08:22:20;-0.30;99.90
52731;DHT22;38624;53.242;6.974;2023-12-04T08:24:45;0.40;99.90
52731;DHT22;38624;53.242;6.974;2023-12-04T08:27:11;0.30;99.90
52731;DHT22;38624;53.242;6.974;2023-12-04T08:29:39;-0.30;99.90
52731;DHT22;38624;53.242;6.974;2023-12-04T08:32:06;-0.20;99.90
52731;DHT22;38624;53.242;6.974;2023-12-04T08:34:32;1.10;99.90
52731;DHT22;38624;53.242;6.974;2023-12-04T08:36:57;0.80;99.90
52731;DHT22;38624;53.242;6.974;2023-12-04T08:39:23;-0.10;99.90
52731;DHT22;38624;53.242;6.974;2023-12-04T08:41:49;1.00;99.90
52731;DHT22;38624;53.242;6.974;2023-12-04T08:44:14;-0.10;99.90
52731;DHT22;38624;53.242;6.974;2023-12-04T08:46:41;0.00;99.90
52731;DHT22;38624;53.242;6.974;2023-12-04T08:49:09;0.00;99.90
52731;DHT22;38624;53.242;6.974;2023-12-04T08:51:35;0.00;99.90
52731;DHT22;38624;53.242;6.974;2023-12-04T08:54:00;0.10;99.90
52731;DHT22;38624;53.242;6.974;2023-12-04T08:56:26;0.10;99.90
52731;DHT22;38624;53.242;6.974;2023-12-04T08:58:52;0.10;99.90
52731;DHT22;38624;53.242;6.974;2023-12-04T09:01:17;0.10;99.90
52731;DHT22;38624;53.242;6.974;2023-12-04T09:03:43;1.20;99.90
52731;DHT22;38624;53.242;6.974;2023-12-04T09:06:09;0.20;99.90
52731;DHT22;38624;53.242;6.974;2023-12-04T09:08:35;0.20;99.90
52731;DHT22;38624;53.242;6.974;2023-12-04T09:11:01;1.20;99.90
52731;DHT22;38624;53.242;6.974;2023-12-04T09:13:27;0.30;99.90
52731;DHT22;38624;53.242;6.974;2023-12-04T09:15:52;0.30;99.90
52731;DHT22;38624;53.242;6.974;2023-12-04T09:18:18;0.70;99.90
52731;DHT22;38624;53.242;6.974;2023-12-04T09:20:44;0.40;99.90
52731;DHT22;38624;53.242;6.974;2023-12-04T09:23:09;0.30;99.90
52731;DHT22;38624;53.242;6.974;2023-12-04T09:25:36;0.30;99.90
52731;DHT22;38624;53.242;6.974;2023-12-04T09:28:01;0.30;99.90
52731;DHT22;38624;53.242;6.974;2023-12-04T09:30:28;1.50;99.90
52731;DHT22;38624;53.242;6.974;2023-12-04T09:32:54;0.40;99.90
52731;DHT22;38624;53.242;6.974;2023-12-04T09:35:20;1.50;99.90
52731;DHT22;38624;53.242;6.974;2023-12-04T09:37:46;0.40;99.90
52731;DHT22;38624;53.242;6.974;2023-12-04T09:40:13;0.40;99.90
52731;DHT22;38624;53.242;6.974;2023-12-04T09:42:39;0.50;99.90
52731;DHT22;38624;53.242;6.974;2023-12-04T09:45:06;0.50;99.90
52731;DHT22;38624;53.242;6.974;2023-12-04T09:47:33;0.50;99.90
52731;DHT22;38624;53.242;6.974;2023-12-04T09:50:00;0.60;99.90
52731;DHT22;38624;53.242;6.974;2023-12-04T09:52:27;0.80;99.90
52731;DHT22;38624;53.242;6.974;2023-12-04T09:54:53;0.70;99.90
52731;DHT22;38624;53.242;6.974;2023-12-04T09:57:18;0.80;99.90
52731;DHT22;38624;53.242;6.974;2023-12-04T09:59:44;0.90;99.90
52731;DHT22;38624;53.242;6.974;2023-12-04T10:02:11;1.30;99.90
52731;DHT22;38624;53.242;6.974;2023-12-04T10:04:37;1.00;99.90
52731;DHT22;38624;53.242;6.974;2023-12-04T10:07:03;1.10;99.90
52731;DHT22;38624;53.242;6.974;2023-12-04T10:09:30;1.20;99.90
52731;DHT22;38624;53.242;6.974;2023-12-04T10:11:56;1.20;99.90
52731;DHT22;38624;53.242;6.974;2023-12-04T10:14:22;1.50;99.90
52731;DHT22;38624;53.242;6.974;2023-12-04T10:16:49;1.30;99.90
52731;DHT22;38624;53.242;6.974;2023-12-04T10:19:20;2.40;99.90
52731;DHT22;38624;53.242;6.974;2023-12-04T10:21:48;1.40;99.90
52731;DHT22;38624;53.242;6.974;2023-12-04T10:24:34;1.50;99.90
52731;DHT22;38624;53.242;6.974;2023-12-04T10:27:05;1.50;99.90
52731;DHT22;38624;53.242;6.974;2023-12-04T10:29:47;1.60;99.90
52731;DHT22;38624;53.242;6.974;2023-12-04T10:32:16;1.60;99.90
52731;DHT22;38624;53.242;6.974;2023-12-04T10:34:43;2.30;99.90
52731;DHT22;38624;53.242;6.974;2023-12-04T10:37:10;1.70;99.90
52731;DHT22;38624;53.242;6.974;2023-12-04T10:39:46;2.90;99.90
52731;DHT22;38624;53.242;6.974;2023-12-04T10:42:15;3.00;99.90
52731;DHT22;38624;53.242;6.974;2023-12-04T10:44:48;1.80;99.90
52731;DHT22;38624;53.242;6.974;2023-12-04T10:47:14;2.40;99.90
52731;DHT22;38624;53.242;6.974;2023-12-04T10:49:41;1.80;99.90
52731;DHT22;38624;53.242;6.974;2023-12-04T10:52:08;1.80;99.90
52731;DHT22;38624;53.242;6.974;2023-12-04T10:54:34;1.80;99.90
52731;DHT22;38624;53.242;6.974;2023-12-04T10:57:01;2.50;99.90
52731;DHT22;38624;53.242;6.974;2023-12-04T10:59:34;1.70;99.90
52731;DHT22;38624;53.242;6.974;2023-12-04T11:02:05;1.80;99.90
52731;DHT22;38624;53.242;6.974;2023-12-04T11:04:31;1.90;99.90
52731;DHT22;38624;53.242;6.974;2023-12-04T11:06:59;2.60;99.90
52731;DHT22;38624;53.242;6.974;2023-12-04T11:09:28;1.50;99.90
52731;DHT22;38624;53.242;6.974;2023-12-04T11:11:56;2.60;99.90
52731;DHT22;38624;53.242;6.974;2023-12-04T11:14:23;2.40;99.90
52731;DHT22;38624;53.242;6.974;2023-12-04T11:17:01;2.00;99.90
52731;DHT22;38624;53.242;6.974;2023-12-04T11:19:55;1.50;99.90
52731;DHT22;38624;53.242;6.974;2023-12-04T11:22:21;1.60;99.90
52731;DHT22;38624;53.242;6.974;2023-12-04T11:24:48;1.90;99.90
52731;DHT22;38624;53.242;6.974;2023-12-04T11:27:19;1.80;99.90
52731;DHT22;38624;53.242;6.974;2023-12-04T11:29:46;3.10;99.90
52731;DHT22;38624;53.242;6.974;2023-12-04T11:32:16;2.90;99.90
52731;DHT22;38624;53.242;6.974;2023-12-04T11:34:50;2.10;99.90
52731;DHT22;38624;53.242;6.974;2023-12-04T11:37:19;2.80;99.90
52731;DHT22;38624;53.242;6.974;2023-12-04T11:39:50;2.30;99.90
52731;DHT22;38624;53.242;6.974;2023-12-04T11:42:23;2.70;99.90
52731;DHT22;38624;53.242;6.974;2023-12-04T11:44:51;2.50;99.90
52731;DHT22;38624;53.242;6.974;2023-12-04T11:47:21;2.50;99.90
52731;DHT22;38624;53.242;6.974;2023-12-04T11:49:46;2.50;99.90
52731;DHT22;38624;53.242;6.974;2023-12-04T11:52:12;2.60;99.90
52731;DHT22;38624;53.242;6.974;2023-12-04T11:55:01;2.70;99.90
52731;DHT22;38624;53.242;6.974;2023-12-04T11:57:38;3.10;99.90
52731;DHT22;38624;53.242;6.974;2023-12-04T12:02:59;2.80;99.90
52731;DHT22;38624;53.242;6.974;2023-12-04T12:05:27;2.90;99.90
52731;DHT22;38624;53.242;6.974;2023-12-04T12:07:53;2.70;99.90
52731;DHT22;38624;53.242;6.974;2023-12-04T12:10:19;3.10;99.90
52731;DHT22;38624;53.242;6.974;2023-12-04T12:12:46;2.70;99.90
52731;DHT22;38624;53.242;6.974;2023-12-04T12:15:13;2.50;99.90
52731;DHT22;38624;53.242;6.974;2023-12-04T12:17:40;2.40;99.90
52731;DHT22;38624;53.242;6.974;2023-12-04T12:20:07;2.40;99.90
52731;DHT22;38624;53.242;6.974;2023-12-04T12:22:34;2.40;99.90
52731;DHT22;38624;53.242;6.974;2023-12-04T12:25:00;3.60;99.90
52731;DHT22;38624;53.242;6.974;2023-12-04T12:27:27;2.40;99.90
52731;DHT22;38624;53.242;6.974;2023-12-04T12:29:52;2.30;99.90
52731;DHT22;38624;53.242;6.974;2023-12-04T12:32:18;3.10;99.90
52731;DHT22;38624;53.242;6.974;2023-12-04T12:34:43;2.40;99.90
52731;DHT22;38624;53.242;6.974;2023-12-04T12:37:09;2.30;99.90
52731;DHT22;38624;53.242;6.974;2023-12-04T12:39:35;3.10;99.90
52731;DHT22;38624;53.242;6.974;2023-12-04T12:42:01;2.20;99.90
52731;DHT22;38624;53.242;6.974;2023-12-04T12:44:40;2.20;99.90
52731;DHT22;38624;53.242;6.974;2023-12-04T12:47:06;2.50;99.90
52731;DHT22;38624;53.242;6.974;2023-12-04T12:49:35;2.60;99.90
52731;DHT22;38624;53.242;6.974;2023-12-04T12:52:05;2.60;99.90
52731;DHT22;38624;53.242;6.974;2023-12-04T12:54:37;2.40;99.90
52731;DHT22;38624;53.242;6.974;2023-12-04T12:57:03;2.70;99.90
52731;DHT22;38624;53.242;6.974;2023-12-04T12:59:29;2.40;99.90
52731;DHT22;38624;53.242;6.974;2023-12-04T13:01:54;2.40;99.90
52731;DHT22;38624;53.242;6.974;2023-12-04T13:04:22;2.40;99.90
52731;DHT22;38624;53.242;6.974;2023-12-04T13:06:48;2.50;99.90
52731;DHT22;38624;53.242;6.974;2023-12-04T13:09:14;3.10;99.90
52731;DHT22;38624;53.242;6.974;2023-12-04T13:11:47;3.30;99.90
52731;DHT22;38624;53.242;6.974;2023-12-04T13:14:13;2.90;99.90
52731;DHT22;38624;53.242;6.974;2023-12-04T13:16:39;3.10;99.90
52731;DHT22;38624;53.242;6.974;2023-12-04T13:19:05;2.20;99.90
52731;DHT22;38624;53.242;6.974;2023-12-04T13:21:31;2.20;99.90
52731;DHT22;38624;53.242;6.974;2023-12-04T13:23:57;2.10;99.90
52731;DHT22;38624;53.242;6.974;2023-12-04T13:26:23;2.00;99.90
52731;DHT22;38624;53.242;6.974;2023-12-04T13:28:48;1.90;99.90
52731;DHT22;38624;53.242;6.974;2023-12-04T13:31:14;2.40;99.90
52731;DHT22;38624;53.242;6.974;2023-12-04T13:33:40;1.70;99.90
52731;DHT22;38624;53.242;6.974;2023-12-04T13:36:09;2.80;99.90
52731;DHT22;38624;53.242;6.974;2023-12-04T13:38:34;1.60;99.90
52731;DHT22;38624;53.242;6.974;2023-12-04T13:41:01;1.60;99.90
52731;DHT22;38624;53.242;6.974;2023-12-04T13:43:44;1.50;99.90
52731;DHT22;38624;53.242;6.974;2023-12-04T13:46:15;1.50;99.90
52731;DHT22;38624;53.242;6.974;2023-12-04T13:48:41;1.50;99.90
52731;DHT22;38624;53.242;6.974;2023-12-04T13:51:09;1.60;99.90
52731;DHT22;38624;53.242;6.974;2023-12-04T13:53:35;1.50;99.90
52731;DHT22;38624;53.242;6.974;2023-12-04T13:56:05;1.60;99.90
52731;DHT22;38624;53.242;6.974;2023-12-04T13:58:51;1.40;99.90
52731;DHT22;38624;53.242;6.974;2023-12-04T14:01:24;1.60;99.90
52731;DHT22;38624;53.242;6.974;2023-12-04T14:03:52;2.30;99.90
52731;DHT22;38624;53.242;6.974;2023-12-04T14:06:19;1.40;99.90
52731;DHT22;38624;53.242;6.974;2023-12-04T14:08:45;1.40;99.90
52731;DHT22;38624;53.242;6.974;2023-12-04T14:11:11;1.40;99.90
52731;DHT22;38624;53.242;6.974;2023-12-04T14:13:40;2.30;99.90
52731;DHT22;38624;53.242;6.974;2023-12-04T14:16:06;1.30;99.90
52731;DHT22;38624;53.242;6.974;2023-12-04T14:18:32;1.20;99.90
52731;DHT22;38624;53.242;6.974;2023-12-04T14:20:58;1.50;99.90
52731;DHT22;38624;53.242;6.974;2023-12-04T14:23:24;1.20;99.90
52731;DHT22;38624;53.242;6.974;2023-12-04T14:25:50;2.00;99.90
52731;DHT22;38624;53.242;6.974;2023-12-04T14:28:16;1.70;99.90
52731;DHT22;38624;53.242;6.974;2023-12-04T14:30:42;1.00;99.90
52731;DHT22;38624;53.242;6.974;2023-12-04T14:33:08;1.00;99.90
52731;DHT22;38624;53.242;6.974;2023-12-04T14:35:35;0.80;99.90
52731;DHT22;38624;53.242;6.974;2023-12-04T14:38:05;0.70;99.90
52731;DHT22;38624;53.242;6.974;2023-12-04T14:40:31;0.70;99.90
52731;DHT22;38624;53.242;6.974;2023-12-04T14:42:58;1.20;99.90
52731;DHT22;38624;53.242;6.974;2023-12-04T14:45:24;0.50;99.90
52731;DHT22;38624;53.242;6.974;2023-12-04T14:47:51;0.40;99.90
52731;DHT22;38624;53.242;6.974;2023-12-04T14:50:20;0.40;99.90
52731;DHT22;38624;53.242;6.974;2023-12-04T14:52:45;0.30;99.90
52731;DHT22;38624;53.242;6.974;2023-12-04T14:55:19;0.80;99.90
52731;DHT22;38624;53.242;6.974;2023-12-04T14:57:48;0.60;99.90
52731;DHT22;38624;53.242;6.974;2023-12-04T15:00:20;0.50;99.90
52731;DHT22;38624;53.242;6.974;2023-12-04T15:02:54;0.00;99.90
52731;DHT22;38624;53.242;6.974;2023-12-04T15:05:55;0.40;99.90
52731;DHT22;38624;53.242;6.974;2023-12-04T15:08:39;-0.10;99.90
52731;DHT22;38624;53.242;6.974;2023-12-04T15:11:23;0.00;99.90
52731;DHT22;38624;53.242;6.974;2023-12-04T15:13:57;0.20;99.90
52731;DHT22;38624;53.242;6.974;2023-12-04T15:16:41;0.80;99.90
52731;DHT22;38624;53.242;6.974;2023-12-04T15:19:18;-0.50;99.90
52731;DHT22;38624;53.242;6.974;2023-12-04T15:22:09;-0.50;99.90
52731;DHT22;38624;53.242;6.974;2023-12-04T15:24:35;0.50;99.90
52731;DHT22;38624;53.242;6.974;2023-12-04T15:27:00;-0.60;99.90
52731;DHT22;38624;53.242;6.974;2023-12-04T15:29:28;-0.70;99.90
52731;DHT22;38624;53.242;6.974;2023-12-04T15:31:55;0.00;99.90
52731;DHT22;38624;53.242;6.974;2023-12-04T15:34:21;-0.70;99.90
52731;DHT22;38624;53.242;6.974;2023-12-04T15:36:47;-0.30;99.90
52731;DHT22;38624;53.242;6.974;2023-12-04T15:39:13;-0.40;99.90
52731;DHT22;38624;53.242;6.974;2023-12-04T15:41:41;0.40;99.90